createdAt,value
2023-10-06T00:09:11.243Z,11.40
2023-10-06T00:13:17.109Z,13.67
2023-10-06T00:16:16.473Z,10.27
2023-10-06T00:19:04.026Z,11.27
2023-10-06T01:57:16.226Z,9.93
2023-10-06T02:44:16.573Z,12.50
2023-10-06T04:58:31.191Z,17.87
2023-10-06T05:01:34.479Z,11.10
2023-10-06T05:12:34.893Z,13.07
2023-10-06T05:17:33.751Z,13.63
2023-10-06T05:19:13.368Z,16.13
2023-10-06T05:24:44.685Z,10.50
2023-10-06T05:27:22.790Z,8.43
2023-10-06T05:29:54.180Z,8.73
2023-10-06T05:32:25.874Z,10.87
2023-10-06T05:34:54.627Z,8.00
2023-10-06T05:37:23.098Z,10.33
2023-10-06T05:39:51.581Z,9.47
2023-10-06T05:42:21.858Z,7.77
2023-10-06T05:44:50.681Z,10.60
2023-10-06T05:47:19.303Z,12.00
2023-10-06T05:49:51.194Z,9.83
2023-10-06T05:52:21.463Z,13.40
2023-10-06T05:54:51.282Z,12.37
2023-10-06T05:57:23.146Z,11.63
2023-10-06T05:59:54.702Z,9.33
2023-10-06T06:02:26.748Z,12.63
2023-10-06T06:04:59.296Z,16.87
2023-10-06T06:07:29.494Z,9.30
2023-10-06T06:09:59.792Z,10.57
2023-10-06T06:12:29.197Z,16.53
2023-10-06T06:15:01.299Z,11.13
2023-10-06T06:17:36.749Z,15.30
2023-10-06T06:24:21.925Z,16.20
2023-10-06T06:26:57.054Z,21.97
2023-10-06T06:29:31.298Z,13.40
2023-10-06T06:41:59.536Z,15.70
2023-10-06T06:44:55.120Z,10.10
2023-10-06T06:50:57.715Z,14.10
2023-10-06T06:53:32.098Z,12.40
2023-10-06T06:56:07.424Z,14.13
2023-10-06T06:59:58.317Z,15.13
2023-10-06T07:02:30.578Z,13.17
2023-10-06T07:04:59.001Z,11.70
2023-10-06T07:07:30.190Z,11.50
2023-10-06T07:10:08.023Z,16.80
2023-10-06T07:12:36.399Z,14.10
2023-10-06T07:15:04.840Z,11.90
2023-10-06T07:17:34.796Z,11.87
2023-10-06T07:20:30.708Z,10.53
2023-10-06T07:23:03.978Z,12.10
2023-10-06T07:26:04.338Z,13.57
2023-10-06T07:28:35.470Z,14.70
2023-10-06T07:31:05.766Z,14.20
2023-10-06T07:33:35.827Z,14.37
2023-10-06T07:36:15.168Z,21.17
2023-10-06T07:38:53.019Z,14.97
2023-10-06T07:41:24.209Z,18.17
2023-10-06T07:43:53.789Z,16.93
2023-10-06T07:46:22.682Z,21.20
2023-10-06T07:48:52.814Z,12.80
2023-10-06T07:51:21.606Z,16.40
2023-10-06T07:53:53.252Z,14.27
2023-10-06T07:56:21.366Z,15.97
2023-10-06T07:58:54.329Z,16.90
2023-10-06T08:01:25.717Z,22.20
2023-10-06T08:03:55.679Z,18.33
2023-10-06T08:06:25.250Z,17.80
2023-10-06T08:09:06.830Z,20.50
2023-10-06T08:11:40.659Z,16.50
2023-10-06T08:14:08.693Z,15.07
2023-10-06T08:16:38.600Z,19.27
2023-10-06T08:19:07.956Z,23.43
2023-10-06T08:21:35.957Z,17.73
2023-10-06T08:24:03.764Z,21.93
2023-10-06T08:26:31.512Z,21.57
2023-10-06T08:29:00.668Z,16.73
2023-10-06T08:31:29.960Z,16.10
2023-10-06T08:34:00.680Z,18.13
2023-10-06T08:36:31.123Z,13.53
2023-10-06T08:38:59.700Z,19.47
2023-10-06T08:41:35.255Z,15.27
2023-10-06T08:44:05.074Z,18.23
2023-10-06T08:46:36.101Z,12.03
2023-10-06T08:49:04.202Z,14.43
2023-10-06T08:51:33.978Z,19.17
2023-10-06T08:54:04.326Z,14.80
2023-10-06T08:56:35.132Z,14.40
2023-10-06T08:59:02.931Z,14.85
2023-10-06T09:01:31.346Z,14.98
2023-10-06T09:04:04.648Z,16.30
2023-10-06T09:06:33.958Z,15.20
2023-10-06T09:09:02.600Z,13.65
2023-10-06T09:11:39.990Z,16.75
2023-10-06T09:14:08.585Z,16.92
2023-10-06T09:16:50.149Z,16.08
2023-10-06T09:19:18.956Z,18.05
2023-10-06T09:22:05.736Z,13.38
2023-10-06T09:24:33.770Z,16.65
2023-10-06T09:27:06.492Z,15.98
2023-10-06T09:29:35.814Z,21.08
2023-10-06T09:32:06.087Z,13.13
2023-10-06T09:34:33.925Z,15.90
2023-10-06T09:37:19.961Z,16.30
2023-10-06T09:39:57.645Z,17.88
2023-10-06T09:42:28.808Z,13.50
2023-10-06T09:45:13.105Z,17.17
2023-10-06T09:47:49.813Z,16.38
2023-10-06T09:50:19.826Z,18.90
2023-10-06T09:52:49.794Z,15.13
2023-10-06T09:55:21.734Z,16.63
2023-10-06T09:57:51.285Z,18.48
2023-10-06T10:00:20.739Z,19.13
2023-10-06T10:02:50.273Z,22.17
2023-10-06T10:05:32.021Z,19.58
2023-10-06T10:08:03.709Z,14.53
2023-10-06T10:10:33.708Z,17.43
2023-10-06T10:13:21.241Z,14.80
2023-10-06T10:16:07.537Z,16.10
2023-10-06T10:18:39.469Z,21.30
2023-10-06T10:21:10.350Z,21.17
2023-10-06T10:23:41.532Z,15.77
2023-10-06T10:26:17.384Z,16.60
2023-10-06T10:28:45.609Z,21.77
2023-10-06T10:31:18.730Z,17.83
2023-10-06T10:33:58.140Z,18.93
2023-10-06T10:36:40.342Z,17.47
2023-10-06T10:39:18.066Z,23.67
2023-10-06T10:41:48.981Z,17.80
2023-10-06T10:44:27.315Z,23.77
2023-10-06T10:47:10.956Z,23.33
2023-10-06T10:53:22.636Z,16.27
2023-10-06T10:55:54.132Z,16.40
2023-10-06T11:02:38.074Z,16.57
2023-10-06T11:05:41.480Z,16.67
2023-10-06T11:08:25.060Z,17.03
2023-10-06T11:11:08.201Z,11.77
2023-10-06T11:14:42.187Z,13.30
2023-10-06T11:17:29.263Z,13.27
2023-10-06T11:36:34.062Z,12.73
2023-10-06T12:37:11.045Z,9.77
2023-10-06T13:19:16.578Z,10.43
2023-10-06T13:21:50.490Z,11.80
2023-10-06T13:31:53.532Z,15.57
2023-10-06T14:52:32.635Z,10.10
2023-10-06T14:58:36.128Z,11.03
2023-10-06T15:01:44.304Z,11.20
2023-10-06T15:04:29.050Z,11.00
2023-10-06T15:07:26.738Z,10.60
2023-10-06T15:14:58.058Z,10.77
2023-10-06T16:13:36.199Z,9.57
2023-10-06T16:28:07.629Z,13.83
2023-10-06T16:49:39.000Z,14.93
2023-10-06T18:12:25.779Z,21.30
2023-10-06T18:15:43.422Z,17.97
2023-10-06T18:18:15.388Z,18.80
2023-10-06T18:24:14.866Z,16.87
2023-10-06T18:26:43.038Z,15.60
2023-10-06T18:29:12.538Z,19.43
2023-10-06T18:31:40.612Z,16.83
2023-10-06T18:34:10.741Z,17.20
2023-10-06T18:36:38.601Z,17.57
2023-10-06T18:39:28.693Z,18.67
2023-10-06T18:41:56.886Z,15.50
2023-10-06T18:44:27.591Z,17.27
2023-10-06T18:46:56.281Z,15.53
2023-10-06T18:49:24.225Z,16.80
2023-10-06T18:52:03.804Z,17.03
2023-10-06T18:54:53.898Z,19.50
2023-10-06T18:57:26.050Z,19.60
2023-10-06T19:03:31.750Z,16.57
2023-10-06T19:06:05.869Z,17.53
2023-10-06T19:08:41.048Z,19.40
2023-10-06T19:14:12.253Z,17.87
2023-10-06T19:16:44.849Z,14.13
2023-10-06T19:19:44.438Z,15.77
2023-10-06T19:22:45.739Z,16.63
2023-10-06T19:25:22.038Z,14.83
2023-10-06T19:35:19.745Z,16.63
2023-10-06T19:38:08.990Z,18.13
2023-10-06T19:45:40.808Z,17.93
2023-10-06T20:03:49.813Z,18.50
2023-10-06T20:07:12.063Z,17.63
2023-10-06T20:23:58.787Z,19.13
2023-10-06T20:26:49.791Z,17.13
2023-10-06T20:29:47.132Z,15.30
2023-10-06T20:46:18.254Z,16.93
2023-10-06T20:48:47.813Z,14.13
2023-10-06T20:51:17.528Z,14.70
2023-10-06T20:53:45.682Z,14.67
2023-10-06T20:56:15.041Z,17.77
2023-10-06T20:58:42.952Z,19.17
2023-10-06T21:01:11.166Z,18.43
2023-10-06T21:03:40.604Z,16.70
2023-10-06T21:06:13.708Z,16.93
2023-10-06T21:08:41.795Z,15.30
2023-10-06T21:11:10.006Z,20.60
2023-10-06T21:13:38.093Z,19.40
2023-10-06T21:16:06.787Z,19.03
2023-10-06T21:18:38.402Z,17.70
2023-10-06T21:21:07.896Z,17.17
2023-10-06T21:23:36.128Z,17.20
2023-10-06T21:26:04.242Z,18.13
2023-10-06T21:28:32.088Z,21.50
2023-10-06T21:34:58.063Z,15.67
2023-10-06T21:44:01.819Z,19.40
2023-10-06T21:47:19.106Z,23.80
2023-10-06T21:50:41.049Z,18.13
2023-10-06T22:24:55.282Z,20.53
2023-10-06T22:27:33.642Z,17.67
2023-10-06T22:30:12.861Z,19.27
2023-10-06T22:32:46.077Z,17.47
2023-10-06T23:03:04.943Z,17.47
2023-10-06T23:09:05.133Z,23.93
2023-10-06T23:19:43.226Z,21.90
2023-10-06T23:25:44.586Z,24.13
2023-10-06T23:28:46.814Z,20.63
2023-10-06T23:41:30.950Z,20.00
2023-10-06T23:48:34.378Z,19.83
